sensor_id;sensor_type;location;lat;lon;timestamp;pressure;altitude;pressure_sealevel;temperature
28305;BMP280;15569;42.652;23.040;2023-04-06T00:23:17;92639.22;;;4.85
28305;BMP280;15569;42.652;23.040;2023-04-06T00:25:43;92631.78;;;5.05
28305;BMP280;15569;42.652;23.040;2023-04-06T00:28:08;92642.63;;;4.86
28305;BMP280;15569;42.652;23.040;2023-04-06T00:30:33;92630.44;;;4.85
28305;BMP280;15569;42.652;23.040;2023-04-06T00:32:59;92627.47;;;4.81
28305;BMP280;15569;42.652;23.040;2023-04-06T00:35:25;92621.53;;;4.72
28305;BMP280;15569;42.652;23.040;2023-04-06T00:37:51;92618.53;;;4.88
28305;BMP280;15569;42.652;23.040;2023-04-06T00:40:17;92613.19;;;5.09
28305;BMP280;15569;42.652;23.040;2023-04-06T00:42:42;92623.81;;;5.16
28305;BMP280;15569;42.652;23.040;2023-04-06T00:45:08;92618.59;;;5.39
28305;BMP280;15569;42.652;23.040;2023-04-06T00:47:34;92619.75;;;5.36
28305;BMP280;15569;42.652;23.040;2023-04-06T00:50:00;92623.63;;;5.24
28305;BMP280;15569;42.652;23.040;2023-04-06T00:52:25;92616.84;;;5.23
28305;BMP280;15569;42.652;23.040;2023-04-06T00:54:51;92619.00;;;5.15
28305;BMP280;15569;42.652;23.040;2023-04-06T00:57:17;92612.84;;;5.24
28305;BMP280;15569;42.652;23.040;2023-04-06T00:59:43;92619.28;;;5.09
28305;BMP280;15569;42.652;23.040;2023-04-06T01:02:08;92615.81;;;4.97
28305;BMP280;15569;42.652;23.040;2023-04-06T01:04:34;92613.41;;;4.92
28305;BMP280;15569;42.652;23.040;2023-04-06T01:07:00;92620.50;;;4.87
28305;BMP280;15569;42.652;23.040;2023-04-06T01:09:29;92609.41;;;4.93
28305;BMP280;15569;42.652;23.040;2023-04-06T01:11:57;92615.50;;;4.93
28305;BMP280;15569;42.652;23.040;2023-04-06T01:14:23;92605.03;;;4.97
28305;BMP280;15569;42.652;23.040;2023-04-06T01:16:49;92606.63;;;4.81
28305;BMP280;15569;42.652;23.040;2023-04-06T01:19:15;92602.97;;;4.86
28305;BMP280;15569;42.652;23.040;2023-04-06T01:21:40;92599.13;;;4.89
28305;BMP280;15569;42.652;23.040;2023-04-06T01:24:06;92609.69;;;4.97
28305;BMP280;15569;42.652;23.040;2023-04-06T01:26:33;92610.94;;;4.65
28305;BMP280;15569;42.652;23.040;2023-04-06T01:28:59;92602.88;;;4.55
28305;BMP280;15569;42.652;23.040;2023-04-06T01:31:25;92596.06;;;4.54
28305;BMP280;15569;42.652;23.040;2023-04-06T01:33:52;92601.16;;;4.69
28305;BMP280;15569;42.652;23.040;2023-04-06T01:36:18;92599.59;;;4.57
28305;BMP280;15569;42.652;23.040;2023-04-06T01:38:43;92565.94;;;4.46
28305;BMP280;15569;42.652;23.040;2023-04-06T01:41:09;92599.88;;;4.70
28305;BMP280;15569;42.652;23.040;2023-04-06T01:43:35;92590.69;;;4.64
28305;BMP280;15569;42.652;23.040;2023-04-06T01:46:00;92598.13;;;4.75
28305;BMP280;15569;42.652;23.040;2023-04-06T01:48:26;92603.50;;;4.85
28305;BMP280;15569;42.652;23.040;2023-04-06T01:50:52;92600.19;;;4.65
28305;BMP280;15569;42.652;23.040;2023-04-06T01:53:18;92599.56;;;4.86
28305;BMP280;15569;42.652;23.040;2023-04-06T01:55:43;92596.66;;;4.93
28305;BMP280;15569;42.652;23.040;2023-04-06T01:58:08;92593.84;;;4.91
28305;BMP280;15569;42.652;23.040;2023-04-06T02:00:34;92590.28;;;4.98
28305;BMP280;15569;42.652;23.040;2023-04-06T02:03:00;92593.41;;;5.04
28305;BMP280;15569;42.652;23.040;2023-04-06T02:05:26;92571.38;;;5.08
28305;BMP280;15569;42.652;23.040;2023-04-06T02:07:51;92585.47;;;4.97
28305;BMP280;15569;42.652;23.040;2023-04-06T02:10:17;92575.69;;;5.01
28305;BMP280;15569;42.652;23.040;2023-04-06T02:12:42;92588.00;;;4.54
28305;BMP280;15569;42.652;23.040;2023-04-06T02:15:08;92589.88;;;4.52
28305;BMP280;15569;42.652;23.040;2023-04-06T02:17:33;92591.47;;;4.26
28305;BMP280;15569;42.652;23.040;2023-04-06T02:19:59;92579.69;;;4.41
28305;BMP280;15569;42.652;23.040;2023-04-06T02:22:24;92581.53;;;4.38
28305;BMP280;15569;42.652;23.040;2023-04-06T02:24:50;92576.28;;;4.40
28305;BMP280;15569;42.652;23.040;2023-04-06T02:27:16;92577.00;;;4.41
28305;BMP280;15569;42.652;23.040;2023-04-06T02:29:41;92580.31;;;4.70
28305;BMP280;15569;42.652;23.040;2023-04-06T02:32:07;92578.53;;;4.94
28305;BMP280;15569;42.652;23.040;2023-04-06T02:34:32;92586.88;;;4.98
28305;BMP280;15569;42.652;23.040;2023-04-06T02:36:58;92578.41;;;4.92
28305;BMP280;15569;42.652;23.040;2023-04-06T02:39:23;92580.00;;;4.75
28305;BMP280;15569;42.652;23.040;2023-04-06T02:41:48;92568.63;;;4.87
28305;BMP280;15569;42.652;23.040;2023-04-06T02:44:14;92583.91;;;5.03
28305;BMP280;15569;42.652;23.040;2023-04-06T02:46:39;92579.34;;;4.65
28305;BMP280;15569;42.652;23.040;2023-04-06T02:49:05;92588.28;;;4.58
28305;BMP280;15569;42.652;23.040;2023-04-06T02:51:31;92582.06;;;4.65
28305;BMP280;15569;42.652;23.040;2023-04-06T02:53:56;92581.47;;;4.67
28305;BMP280;15569;42.652;23.040;2023-04-06T02:56:21;92577.22;;;4.64
28305;BMP280;15569;42.652;23.040;2023-04-06T02:58:47;92582.84;;;4.78
28305;BMP280;15569;42.652;23.040;2023-04-06T03:01:12;92584.25;;;4.88
28305;BMP280;15569;42.652;23.040;2023-04-06T03:03:38;92588.31;;;4.49
28305;BMP280;15569;42.652;23.040;2023-04-06T03:06:03;92582.81;;;4.28
28305;BMP280;15569;42.652;23.040;2023-04-06T03:08:29;92576.19;;;4.09
28305;BMP280;15569;42.652;23.040;2023-04-06T03:10:55;92583.56;;;3.99
28305;BMP280;15569;42.652;23.040;2023-04-06T03:13:21;92579.28;;;3.77
28305;BMP280;15569;42.652;23.040;2023-04-06T03:15:46;92573.31;;;3.50
28305;BMP280;15569;42.652;23.040;2023-04-06T03:18:11;92583.09;;;3.74
28305;BMP280;15569;42.652;23.040;2023-04-06T03:20:37;92584.94;;;4.00
28305;BMP280;15569;42.652;23.040;2023-04-06T03:23:02;92581.00;;;3.82
28305;BMP280;15569;42.652;23.040;2023-04-06T03:25:28;92575.06;;;4.03
28305;BMP280;15569;42.652;23.040;2023-04-06T03:27:55;92585.22;;;3.95
28305;BMP280;15569;42.652;23.040;2023-04-06T03:30:21;92583.47;;;2.96
28305;BMP280;15569;42.652;23.040;2023-04-06T03:32:46;92580.91;;;3.34
28305;BMP280;15569;42.652;23.040;2023-04-06T03:35:11;92591.47;;;3.23
28305;BMP280;15569;42.652;23.040;2023-04-06T03:37:37;92583.78;;;3.36
28305;BMP280;15569;42.652;23.040;2023-04-06T03:40:03;92577.81;;;3.19
28305;BMP280;15569;42.652;23.040;2023-04-06T03:42:29;92584.28;;;3.16
28305;BMP280;15569;42.652;23.040;2023-04-06T03:44:54;92579.03;;;3.08
28305;BMP280;15569;42.652;23.040;2023-04-06T03:47:20;92577.91;;;3.11
28305;BMP280;15569;42.652;23.040;2023-04-06T03:49:45;92574.25;;;2.80
28305;BMP280;15569;42.652;23.040;2023-04-06T03:52:11;92571.47;;;2.87
28305;BMP280;15569;42.652;23.040;2023-04-06T03:54:36;92567.53;;;2.88
28305;BMP280;15569;42.652;23.040;2023-04-06T03:57:02;92568.91;;;3.16
28305;BMP280;15569;42.652;23.040;2023-04-06T03:59:27;92578.31;;;3.08
28305;BMP280;15569;42.652;23.040;2023-04-06T04:01:52;92574.69;;;3.22
28305;BMP280;15569;42.652;23.040;2023-04-06T04:04:18;92567.50;;;3.34
28305;BMP280;15569;42.652;23.040;2023-04-06T04:06:44;92577.47;;;3.70
28305;BMP280;15569;42.652;23.040;2023-04-06T04:09:09;92569.91;;;3.49
28305;BMP280;15569;42.652;23.040;2023-04-06T04:11:35;92568.69;;;3.98
28305;BMP280;15569;42.652;23.040;2023-04-06T04:14:00;92567.56;;;4.11
28305;BMP280;15569;42.652;23.040;2023-04-06T04:16:26;92567.00;;;4.03
28305;BMP280;15569;42.652;23.040;2023-04-06T04:18:51;92574.03;;;4.27
28305;BMP280;15569;42.652;23.040;2023-04-06T04:21:16;92573.38;;;4.07
28305;BMP280;15569;42.652;23.040;2023-04-06T04:23:42;92565.16;;;4.05
28305;BMP280;15569;42.652;23.040;2023-04-06T04:46:51;92572.03;;;4.37
28305;BMP280;15569;42.652;23.040;2023-04-06T04:49:17;92568.44;;;4.63
28305;BMP280;15569;42.652;23.040;2023-04-06T04:51:42;92573.00;;;4.51
28305;BMP280;15569;42.652;23.040;2023-04-06T04:54:07;92564.56;;;4.76
28305;BMP280;15569;42.652;23.040;2023-04-06T04:56:33;92564.75;;;4.68
28305;BMP280;15569;42.652;23.040;2023-04-06T04:58:58;92561.91;;;4.66
28305;BMP280;15569;42.652;23.040;2023-04-06T05:01:24;92552.34;;;4.35
28305;BMP280;15569;42.652;23.040;2023-04-06T05:03:49;92568.59;;;4.65
28305;BMP280;15569;42.652;23.040;2023-04-06T05:06:15;92559.88;;;4.86
28305;BMP280;15569;42.652;23.040;2023-04-06T05:08:41;92564.34;;;4.93
28305;BMP280;15569;42.652;23.040;2023-04-06T05:11:06;92557.38;;;4.69
28305;BMP280;15569;42.652;23.040;2023-04-06T05:13:32;92565.19;;;4.65
28305;BMP280;15569;42.652;23.040;2023-04-06T05:15:57;92562.06;;;4.68
28305;BMP280;15569;42.652;23.040;2023-04-06T05:18:23;92566.19;;;4.91
28305;BMP280;15569;42.652;23.040;2023-04-06T05:20:48;92564.75;;;4.99
28305;BMP280;15569;42.652;23.040;2023-04-06T05:23:14;92567.03;;;5.03
28305;BMP280;15569;42.652;23.040;2023-04-06T05:25:40;92566.84;;;4.80
28305;BMP280;15569;42.652;23.040;2023-04-06T05:28:06;92560.97;;;4.52
28305;BMP280;15569;42.652;23.040;2023-04-06T05:30:31;92565.06;;;4.94
28305;BMP280;15569;42.652;23.040;2023-04-06T05:32:57;92560.03;;;5.09
28305;BMP280;15569;42.652;23.040;2023-04-06T05:35:22;92560.75;;;5.10
28305;BMP280;15569;42.652;23.040;2023-04-06T05:37:47;92548.59;;;4.68
28305;BMP280;15569;42.652;23.040;2023-04-06T05:40:13;92564.50;;;4.95
28305;BMP280;15569;42.652;23.040;2023-04-06T05:42:39;92549.97;;;4.79
28305;BMP280;15569;42.652;23.040;2023-04-06T05:45:06;92560.34;;;4.63
28305;BMP280;15569;42.652;23.040;2023-04-06T05:47:32;92557.63;;;4.73
28305;BMP280;15569;42.652;23.040;2023-04-06T05:49:57;92558.38;;;4.54
28305;BMP280;15569;42.652;23.040;2023-04-06T05:52:23;92560.13;;;4.40
28305;BMP280;15569;42.652;23.040;2023-04-06T05:54:48;92557.47;;;4.81
28305;BMP280;15569;42.652;23.040;2023-04-06T05:57:14;92549.13;;;4.76
28305;BMP280;15569;42.652;23.040;2023-04-06T05:59:39;92545.53;;;4.84
28305;BMP280;15569;42.652;23.040;2023-04-06T06:02:05;92558.44;;;5.16
28305;BMP280;15569;42.652;23.040;2023-04-06T06:04:30;92557.22;;;5.07
28305;BMP280;15569;42.652;23.040;2023-04-06T06:06:56;92556.78;;;5.32
28305;BMP280;15569;42.652;23.040;2023-04-06T06:09:22;92554.88;;;5.44
28305;BMP280;15569;42.652;23.040;2023-04-06T06:11:48;92544.41;;;5.38
28305;BMP280;15569;42.652;23.040;2023-04-06T06:14:13;92550.13;;;5.54
28305;BMP280;15569;42.652;23.040;2023-04-06T06:16:39;92541.84;;;5.62
28305;BMP280;15569;42.652;23.040;2023-04-06T06:19:04;92546.50;;;5.82
28305;BMP280;15569;42.652;23.040;2023-04-06T06:21:30;92544.84;;;5.77
28305;BMP280;15569;42.652;23.040;2023-04-06T06:23:56;92538.88;;;5.79
28305;BMP280;15569;42.652;23.040;2023-04-06T06:26:22;92543.53;;;5.67
28305;BMP280;15569;42.652;23.040;2023-04-06T06:28:47;92547.34;;;5.85
28305;BMP280;15569;42.652;23.040;2023-04-06T06:31:13;92544.44;;;5.71
28305;BMP280;15569;42.652;23.040;2023-04-06T06:33:38;92542.56;;;5.95
28305;BMP280;15569;42.652;23.040;2023-04-06T06:36:04;92542.34;;;6.02
28305;BMP280;15569;42.652;23.040;2023-04-06T06:38:29;92546.88;;;6.33
28305;BMP280;15569;42.652;23.040;2023-04-06T06:40:55;92550.06;;;6.29
28305;BMP280;15569;42.652;23.040;2023-04-06T06:43:20;92547.84;;;6.37
28305;BMP280;15569;42.652;23.040;2023-04-06T06:45:46;92519.81;;;5.65
28305;BMP280;15569;42.652;23.040;2023-04-06T06:48:11;92547.47;;;6.20
28305;BMP280;15569;42.652;23.040;2023-04-06T06:50:37;92547.16;;;6.04
28305;BMP280;15569;42.652;23.040;2023-04-06T06:53:02;92559.75;;;5.57
28305;BMP280;15569;42.652;23.040;2023-04-06T06:55:28;92551.69;;;5.90
28305;BMP280;15569;42.652;23.040;2023-04-06T06:57:53;92542.28;;;6.12
28305;BMP280;15569;42.652;23.040;2023-04-06T07:00:19;92557.56;;;6.31
28305;BMP280;15569;42.652;23.040;2023-04-06T07:02:48;92567.53;;;6.28
28305;BMP280;15569;42.652;23.040;2023-04-06T07:05:14;92552.66;;;5.73
28305;BMP280;15569;42.652;23.040;2023-04-06T07:07:40;92562.09;;;6.17
28305;BMP280;15569;42.652;23.040;2023-04-06T07:10:07;92557.31;;;6.27
28305;BMP280;15569;42.652;23.040;2023-04-06T07:12:33;92569.38;;;6.14
28305;BMP280;15569;42.652;23.040;2023-04-06T07:14:59;92564.63;;;6.36
28305;BMP280;15569;42.652;23.040;2023-04-06T07:17:24;92574.38;;;6.41
28305;BMP280;15569;42.652;23.040;2023-04-06T07:19:50;92564.06;;;6.60
28305;BMP280;15569;42.652;23.040;2023-04-06T07:22:15;92564.69;;;5.61
28305;BMP280;15569;42.652;23.040;2023-04-06T07:24:41;92562.06;;;6.38
28305;BMP280;15569;42.652;23.040;2023-04-06T07:27:06;92549.03;;;5.69
28305;BMP280;15569;42.652;23.040;2023-04-06T07:29:32;92561.53;;;6.30
28305;BMP280;15569;42.652;23.040;2023-04-06T07:31:57;92554.63;;;6.27
28305;BMP280;15569;42.652;23.040;2023-04-06T07:34:23;92559.94;;;6.03
28305;BMP280;15569;42.652;23.040;2023-04-06T07:36:48;92563.84;;;6.68
28305;BMP280;15569;42.652;23.040;2023-04-06T07:39:14;92555.75;;;6.68
28305;BMP280;15569;42.652;23.040;2023-04-06T07:41:40;92556.88;;;5.97
28305;BMP280;15569;42.652;23.040;2023-04-06T07:44:05;92568.72;;;6.37
28305;BMP280;15569;42.652;23.040;2023-04-06T07:46:31;92560.50;;;6.23
28305;BMP280;15569;42.652;23.040;2023-04-06T07:48:58;92556.41;;;6.45
28305;BMP280;15569;42.652;23.040;2023-04-06T07:51:24;92556.41;;;6.45
28305;BMP280;15569;42.652;23.040;2023-04-06T07:53:50;92550.31;;;6.45
28305;BMP280;15569;42.652;23.040;2023-04-06T07:56:16;92563.06;;;6.33
28305;BMP280;15569;42.652;23.040;2023-04-06T07:58:42;92566.09;;;6.16
28305;BMP280;15569;42.652;23.040;2023-04-06T08:01:07;92563.72;;;5.77
28305;BMP280;15569;42.652;23.040;2023-04-06T08:03:34;92559.91;;;5.92
28305;BMP280;15569;42.652;23.040;2023-04-06T08:05:59;92567.03;;;6.53
28305;BMP280;15569;42.652;23.040;2023-04-06T08:08:25;92563.00;;;6.54
28305;BMP280;15569;42.652;23.040;2023-04-06T08:10:50;92564.94;;;6.86
28305;BMP280;15569;42.652;23.040;2023-04-06T08:13:16;92554.84;;;6.19
28305;BMP280;15569;42.652;23.040;2023-04-06T08:15:41;92570.28;;;6.51
28305;BMP280;15569;42.652;23.040;2023-04-06T08:18:08;92556.53;;;6.36
28305;BMP280;15569;42.652;23.040;2023-04-06T08:20:33;92559.06;;;7.13
28305;BMP280;15569;42.652;23.040;2023-04-06T08:22:59;92564.34;;;6.76
28305;BMP280;15569;42.652;23.040;2023-04-06T08:25:24;92569.97;;;6.92
28305;BMP280;15569;42.652;23.040;2023-04-06T08:27:50;92556.56;;;6.70
28305;BMP280;15569;42.652;23.040;2023-04-06T08:30:15;92555.97;;;6.60
28305;BMP280;15569;42.652;23.040;2023-04-06T08:32:41;92564.22;;;6.97
28305;BMP280;15569;42.652;23.040;2023-04-06T08:35:07;92563.50;;;6.62
28305;BMP280;15569;42.652;23.040;2023-04-06T08:37:33;92549.88;;;6.60
28305;BMP280;15569;42.652;23.040;2023-04-06T08:39:59;92569.59;;;6.51
28305;BMP280;15569;42.652;23.040;2023-04-06T08:42:25;92553.16;;;6.93
28305;BMP280;15569;42.652;23.040;2023-04-06T08:44:51;92549.50;;;7.35
28305;BMP280;15569;42.652;23.040;2023-04-06T08:47:18;92559.34;;;7.79
28305;BMP280;15569;42.652;23.040;2023-04-06T08:49:44;92551.31;;;7.56
28305;BMP280;15569;42.652;23.040;2023-04-06T08:52:11;92564.56;;;7.26
28305;BMP280;15569;42.652;23.040;2023-04-06T08:54:38;92551.47;;;7.34
28305;BMP280;15569;42.652;23.040;2023-04-06T08:57:04;92556.38;;;7.61
28305;BMP280;15569;42.652;23.040;2023-04-06T08:59:30;92555.91;;;7.90
28305;BMP280;15569;42.652;23.040;2023-04-06T09:01:56;92553.78;;;7.52
28305;BMP280;15569;42.652;23.040;2023-04-06T09:04:22;92560.75;;;7.31
28305;BMP280;15569;42.652;23.040;2023-04-06T09:06:48;92558.72;;;7.55
28305;BMP280;15569;42.652;23.040;2023-04-06T09:09:15;92547.28;;;8.05
28305;BMP280;15569;42.652;23.040;2023-04-06T09:11:53;92550.97;;;7.86
28305;BMP280;15569;42.652;23.040;2023-04-06T09:14:38;92533.16;;;7.95
28305;BMP280;15569;42.652;23.040;2023-04-06T09:17:05;92546.38;;;7.89
28305;BMP280;15569;42.652;23.040;2023-04-06T09:19:31;92548.53;;;8.29
28305;BMP280;15569;42.652;23.040;2023-04-06T09:22:04;92543.50;;;8.24
28305;BMP280;15569;42.652;23.040;2023-04-06T09:24:44;92544.44;;;8.03
28305;BMP280;15569;42.652;23.040;2023-04-06T09:27:10;92542.81;;;7.98
28305;BMP280;15569;42.652;23.040;2023-04-06T09:29:35;92524.31;;;8.58
28305;BMP280;15569;42.652;23.040;2023-04-06T09:32:11;92541.31;;;9.13
28305;BMP280;15569;42.652;23.040;2023-04-06T09:34:39;92536.09;;;9.04
28305;BMP280;15569;42.652;23.040;2023-04-06T09:37:15;92538.88;;;9.06
28305;BMP280;15569;42.652;23.040;2023-04-06T09:39:41;92539.38;;;8.61
28305;BMP280;15569;42.652;23.040;2023-04-06T09:42:06;92530.47;;;9.00
28305;BMP280;15569;42.652;23.040;2023-04-06T09:44:32;92535.28;;;9.15
28305;BMP280;15569;42.652;23.040;2023-04-06T09:46:57;92525.16;;;8.88
28305;BMP280;15569;42.652;23.040;2023-04-06T09:49:24;92531.69;;;9.53
28305;BMP280;15569;42.652;23.040;2023-04-06T09:51:55;92526.03;;;9.20
28305;BMP280;15569;42.652;23.040;2023-04-06T09:54:22;92541.13;;;9.52
28305;BMP280;15569;42.652;23.040;2023-04-06T09:56:55;92535.16;;;9.40
28305;BMP280;15569;42.652;23.040;2023-04-06T10:02:32;92522.91;;;9.39
28305;BMP280;15569;42.652;23.040;2023-04-06T10:05:04;92526.44;;;8.46
28305;BMP280;15569;42.652;23.040;2023-04-06T10:07:31;92513.00;;;7.84
28305;BMP280;15569;42.652;23.040;2023-04-06T10:09:58;92531.47;;;8.79
28305;BMP280;15569;42.652;23.040;2023-04-06T10:12:24;92528.16;;;8.94
28305;BMP280;15569;42.652;23.040;2023-04-06T10:14:50;92525.84;;;9.02
28305;BMP280;15569;42.652;23.040;2023-04-06T10:17:16;92531.75;;;8.71
28305;BMP280;15569;42.652;23.040;2023-04-06T10:19:46;92536.00;;;8.36
28305;BMP280;15569;42.652;23.040;2023-04-06T10:22:36;92526.94;;;8.97
28305;BMP280;15569;42.652;23.040;2023-04-06T10:25:03;92538.25;;;9.34
28305;BMP280;15569;42.652;23.040;2023-04-06T10:27:30;92532.47;;;8.99
28305;BMP280;15569;42.652;23.040;2023-04-06T10:30:02;92530.31;;;9.25
28305;BMP280;15569;42.652;23.040;2023-04-06T10:32:35;92528.75;;;9.20
28305;BMP280;15569;42.652;23.040;2023-04-06T10:35:10;92517.34;;;8.94
28305;BMP280;15569;42.652;23.040;2023-04-06T10:38:06;92520.31;;;9.14
28305;BMP280;15569;42.652;23.040;2023-04-06T10:40:36;92512.19;;;8.73
28305;BMP280;15569;42.652;23.040;2023-04-06T10:43:18;92503.25;;;8.70
28305;BMP280;15569;42.652;23.040;2023-04-06T10:45:44;92505.97;;;8.04
28305;BMP280;15569;42.652;23.040;2023-04-06T10:48:14;92513.69;;;7.60
28305;BMP280;15569;42.652;23.040;2023-04-06T10:50:41;92510.34;;;7.36
28305;BMP280;15569;42.652;23.040;2023-04-06T10:53:07;92514.72;;;7.66
28305;BMP280;15569;42.652;23.040;2023-04-06T10:55:33;92506.41;;;7.14
28305;BMP280;15569;42.652;23.040;2023-04-06T10:57:59;92510.97;;;8.10
28305;BMP280;15569;42.652;23.040;2023-04-06T11:00:25;92511.97;;;8.69
28305;BMP280;15569;42.652;23.040;2023-04-06T11:02:51;92501.97;;;8.85
28305;BMP280;15569;42.652;23.040;2023-04-06T11:05:17;92499.47;;;8.75
28305;BMP280;15569;42.652;23.040;2023-04-06T11:07:43;92508.88;;;8.61
28305;BMP280;15569;42.652;23.040;2023-04-06T11:10:09;92498.25;;;8.78
28305;BMP280;15569;42.652;23.040;2023-04-06T11:12:35;92508.38;;;8.64
28305;BMP280;15569;42.652;23.040;2023-04-06T11:15:02;92499.22;;;8.99
28305;BMP280;15569;42.652;23.040;2023-04-06T11:17:35;92492.72;;;9.04
28305;BMP280;15569;42.652;23.040;2023-04-06T11:20:02;92503.41;;;8.20
28305;BMP280;15569;42.652;23.040;2023-04-06T11:22:28;92486.06;;;8.00
28305;BMP280;15569;42.652;23.040;2023-04-06T11:25:07;92496.66;;;7.82
28305;BMP280;15569;42.652;23.040;2023-04-06T11:27:34;92481.56;;;7.66
28305;BMP280;15569;42.652;23.040;2023-04-06T11:30:01;92490.22;;;8.15
28305;BMP280;15569;42.652;23.040;2023-04-06T11:32:27;92507.53;;;7.22
28305;BMP280;15569;42.652;23.040;2023-04-06T11:34:52;92481.31;;;6.88
28305;BMP280;15569;42.652;23.040;2023-04-06T11:37:18;92470.22;;;7.44
28305;BMP280;15569;42.652;23.040;2023-04-06T11:39:51;92463.84;;;7.26
28305;BMP280;15569;42.652;23.040;2023-04-06T11:42:24;92497.78;;;7.17
28305;BMP280;15569;42.652;23.040;2023-04-06T11:44:51;92481.28;;;7.00
28305;BMP280;15569;42.652;23.040;2023-04-06T11:47:18;92477.31;;;6.78
28305;BMP280;15569;42.652;23.040;2023-04-06T11:49:44;92466.56;;;7.14
28305;BMP280;15569;42.652;23.040;2023-04-06T11:52:27;92473.97;;;7.76
28305;BMP280;15569;42.652;23.040;2023-04-06T11:54:54;92475.69;;;8.08
28305;BMP280;15569;42.652;23.040;2023-04-06T11:57:22;92448.88;;;7.87
28305;BMP280;15569;42.652;23.040;2023-04-06T11:59:50;92459.59;;;8.51
28305;BMP280;15569;42.652;23.040;2023-04-06T12:02:16;92470.06;;;7.79
28305;BMP280;15569;42.652;23.040;2023-04-06T12:04:42;92461.53;;;8.09
28305;BMP280;15569;42.652;23.040;2023-04-06T12:07:08;92456.50;;;8.70
28305;BMP280;15569;42.652;23.040;2023-04-06T12:09:33;92454.97;;;8.53
28305;BMP280;15569;42.652;23.040;2023-04-06T12:12:01;92445.75;;;8.72
28305;BMP280;15569;42.652;23.040;2023-04-06T12:14:27;92452.97;;;8.54
28305;BMP280;15569;42.652;23.040;2023-04-06T12:16:52;92465.25;;;8.02
28305;BMP280;15569;42.652;23.040;2023-04-06T12:19:18;92458.41;;;8.40
28305;BMP280;15569;42.652;23.040;2023-04-06T12:21:43;92455.50;;;8.63
28305;BMP280;15569;42.652;23.040;2023-04-06T12:24:08;92455.88;;;9.12
28305;BMP280;15569;42.652;23.040;2023-04-06T12:26:35;92453.31;;;8.07
28305;BMP280;15569;42.652;23.040;2023-04-06T12:29:01;92446.16;;;8.26
28305;BMP280;15569;42.652;23.040;2023-04-06T12:31:32;92458.41;;;8.54
28305;BMP280;15569;42.652;23.040;2023-04-06T12:33:58;92459.88;;;8.57
28305;BMP280;15569;42.652;23.040;2023-04-06T12:36:23;92458.81;;;8.75
28305;BMP280;15569;42.652;23.040;2023-04-06T12:38:49;92474.50;;;8.11
28305;BMP280;15569;42.652;23.040;2023-04-06T12:41:16;92452.84;;;8.11
28305;BMP280;15569;42.652;23.040;2023-04-06T12:43:42;92464.81;;;7.44
28305;BMP280;15569;42.652;23.040;2023-04-06T12:46:08;92472.47;;;7.48
28305;BMP280;15569;42.652;23.040;2023-04-06T12:48:33;92447.69;;;7.03
28305;BMP280;15569;42.652;23.040;2023-04-06T12:51:02;92430.00;;;7.50
28305;BMP280;15569;42.652;23.040;2023-04-06T12:53:28;92444.75;;;7.86
28305;BMP280;15569;42.652;23.040;2023-04-06T12:55:54;92452.09;;;7.21
28305;BMP280;15569;42.652;23.040;2023-04-06T12:58:21;92455.00;;;6.89
28305;BMP280;15569;42.652;23.040;2023-04-06T13:00:50;92454.41;;;6.90
28305;BMP280;15569;42.652;23.040;2023-04-06T13:03:16;92452.44;;;6.79
28305;BMP280;15569;42.652;23.040;2023-04-06T13:05:49;92441.50;;;7.51
28305;BMP280;15569;42.652;23.040;2023-04-06T13:08:17;92440.22;;;7.77
28305;BMP280;15569;42.652;23.040;2023-04-06T13:10:50;92437.38;;;8.00
28305;BMP280;15569;42.652;23.040;2023-04-06T13:13:16;92442.44;;;7.80
28305;BMP280;15569;42.652;23.040;2023-04-06T13:15:41;92449.72;;;8.17
28305;BMP280;15569;42.652;23.040;2023-04-06T13:18:08;92447.91;;;7.69
28305;BMP280;15569;42.652;23.040;2023-04-06T13:20:33;92445.78;;;7.42
28305;BMP280;15569;42.652;23.040;2023-04-06T13:22:59;92443.22;;;7.32
28305;BMP280;15569;42.652;23.040;2023-04-06T13:25:24;92436.28;;;7.66
28305;BMP280;15569;42.652;23.040;2023-04-06T13:27:50;92431.13;;;7.97
28305;BMP280;15569;42.652;23.040;2023-04-06T13:30:16;92430.00;;;7.25
28305;BMP280;15569;42.652;23.040;2023-04-06T13:32:41;92434.25;;;7.05
28305;BMP280;15569;42.652;23.040;2023-04-06T13:35:07;92427.69;;;7.45
28305;BMP280;15569;42.652;23.040;2023-04-06T13:37:33;92426.38;;;7.71
28305;BMP280;15569;42.652;23.040;2023-04-06T13:39:59;92423.56;;;7.43
28305;BMP280;15569;42.652;23.040;2023-04-06T13:42:26;92430.97;;;7.68
28305;BMP280;15569;42.652;23.040;2023-04-06T13:44:52;92434.78;;;8.02
28305;BMP280;15569;42.652;23.040;2023-04-06T13:47:18;92422.78;;;8.32
28305;BMP280;15569;42.652;23.040;2023-04-06T13:49:43;92430.78;;;8.30
28305;BMP280;15569;42.652;23.040;2023-04-06T13:52:09;92424.78;;;7.79
28305;BMP280;15569;42.652;23.040;2023-04-06T13:54:35;92428.44;;;7.59
28305;BMP280;15569;42.652;23.040;2023-04-06T13:57:01;92434.63;;;7.73
28305;BMP280;15569;42.652;23.040;2023-04-06T13:59:32;92432.09;;;7.26
28305;BMP280;15569;42.652;23.040;2023-04-06T14:01:58;92430.44;;;7.58
28305;BMP280;15569;42.652;23.040;2023-04-06T14:04:23;92449.06;;;7.91
28305;BMP280;15569;42.652;23.040;2023-04-06T14:06:49;92445.72;;;7.17
28305;BMP280;15569;42.652;23.040;2023-04-06T14:09:14;92439.50;;;6.89
28305;BMP280;15569;42.652;23.040;2023-04-06T14:11:39;92433.03;;;7.31
28305;BMP280;15569;42.652;23.040;2023-04-06T14:14:05;92430.53;;;6.98
28305;BMP280;15569;42.652;23.040;2023-04-06T14:16:30;92435.38;;;6.88
28305;BMP280;15569;42.652;23.040;2023-04-06T14:18:56;92436.22;;;7.78
28305;BMP280;15569;42.652;23.040;2023-04-06T14:21:22;92432.25;;;7.42
28305;BMP280;15569;42.652;23.040;2023-04-06T14:23:48;92420.78;;;7.30
28305;BMP280;15569;42.652;23.040;2023-04-06T14:26:14;92436.06;;;7.00
28305;BMP280;15569;42.652;23.040;2023-04-06T14:28:40;92438.13;;;7.13
28305;BMP280;15569;42.652;23.040;2023-04-06T14:31:11;92443.41;;;7.11
28305;BMP280;15569;42.652;23.040;2023-04-06T14:33:38;92436.66;;;6.87
28305;BMP280;15569;42.652;23.040;2023-04-06T14:36:04;92445.59;;;6.90
28305;BMP280;15569;42.652;23.040;2023-04-06T14:38:31;92444.44;;;6.58
28305;BMP280;15569;42.652;23.040;2023-04-06T14:40:57;92427.06;;;6.61
28305;BMP280;15569;42.652;23.040;2023-04-06T14:43:22;92434.59;;;6.74
28305;BMP280;15569;42.652;23.040;2023-04-06T14:45:48;92444.41;;;6.81
28305;BMP280;15569;42.652;23.040;2023-04-06T14:48:13;92441.28;;;6.50
28305;BMP280;15569;42.652;23.040;2023-04-06T14:50:41;92443.03;;;6.22